createdAt,value
2022-07-27T00:00:49.496Z,19.20
2022-07-27T00:03:16.559Z,19.10
2022-07-27T00:05:43.264Z,19.10
2022-07-27T00:08:10.229Z,19.00
2022-07-27T00:10:37.506Z,19.00
2022-07-27T00:13:06.099Z,19.00
2022-07-27T00:15:34.262Z,18.90
2022-07-27T00:18:01.114Z,18.90
2022-07-27T00:20:28.987Z,18.80
2022-07-27T00:22:56.132Z,18.80
2022-07-27T00:25:23.366Z,18.70
2022-07-27T00:27:50.088Z,18.70
2022-07-27T00:30:17.171Z,18.70
2022-07-27T00:32:44.012Z,18.70
2022-07-27T00:35:11.683Z,18.70
2022-07-27T00:37:38.838Z,18.60
2022-07-27T00:40:06.513Z,18.60
2022-07-27T00:42:33.650Z,18.60
2022-07-27T00:45:03.054Z,18.50
2022-07-27T00:47:30.042Z,18.50
2022-07-27T00:49:58.158Z,18.50
2022-07-27T00:52:25.732Z,18.50
2022-07-27T00:54:53.113Z,18.50
2022-07-27T00:57:20.248Z,18.50
2022-07-27T00:59:46.867Z,18.50
2022-07-27T01:02:19.484Z,18.50
2022-07-27T01:04:47.338Z,18.50
2022-07-27T01:07:15.801Z,18.50
2022-07-27T01:09:58.400Z,18.50
2022-07-27T01:12:30.427Z,18.50
2022-07-27T01:14:58.127Z,18.50
2022-07-27T01:17:26.527Z,18.50
2022-07-27T01:19:53.331Z,18.50
2022-07-27T01:22:20.208Z,18.50
2022-07-27T01:24:47.816Z,18.40
2022-07-27T01:27:14.609Z,18.40
2022-07-27T01:29:41.840Z,18.40
2022-07-27T01:32:08.759Z,18.30
2022-07-27T01:34:35.852Z,18.40
2022-07-27T01:37:03.757Z,18.40
2022-07-27T01:39:31.493Z,18.30
2022-07-27T01:41:59.180Z,18.30
2022-07-27T01:44:26.078Z,18.30
2022-07-27T01:46:52.965Z,18.30
2022-07-27T01:49:19.835Z,18.30
2022-07-27T01:51:46.703Z,18.20
2022-07-27T01:54:13.702Z,18.20
2022-07-27T01:56:41.543Z,18.10
2022-07-27T01:59:08.411Z,18.10
2022-07-27T02:01:43.496Z,18.10
2022-07-27T02:04:10.132Z,18.20
2022-07-27T02:06:36.811Z,18.10
2022-07-27T02:09:03.629Z,18.10
2022-07-27T02:11:49.933Z,18.10
2022-07-27T02:14:16.741Z,18.10
2022-07-27T02:16:43.601Z,18.00
2022-07-27T02:19:11.227Z,18.00
2022-07-27T02:21:38.275Z,18.00
2022-07-27T02:24:05.346Z,18.00
2022-07-27T02:26:32.008Z,18.00
2022-07-27T02:28:58.637Z,17.90
2022-07-27T02:31:25.322Z,17.80
2022-07-27T02:33:52.072Z,17.90
2022-07-27T02:36:19.299Z,17.80
2022-07-27T02:38:45.975Z,17.80
2022-07-27T02:41:12.596Z,17.70
2022-07-27T02:43:39.234Z,17.70
2022-07-27T02:46:06.047Z,17.60
2022-07-27T02:48:33.268Z,17.70
2022-07-27T02:51:01.901Z,17.70
2022-07-27T02:53:29.654Z,17.60
2022-07-27T02:55:57.421Z,17.70
2022-07-27T02:58:24.667Z,17.60
2022-07-27T03:00:54.951Z,17.60
2022-07-27T03:03:24.898Z,17.60
2022-07-27T03:06:03.221Z,17.60
2022-07-27T03:08:29.899Z,17.50
2022-07-27T03:10:56.525Z,17.60
2022-07-27T03:13:23.256Z,17.60
2022-07-27T03:15:49.927Z,17.60
2022-07-27T03:18:16.714Z,17.60
2022-07-27T03:20:43.488Z,17.50
2022-07-27T03:23:10.195Z,17.50
2022-07-27T03:25:36.944Z,17.50
2022-07-27T03:28:04.434Z,17.50
2022-07-27T03:30:32.616Z,17.50
2022-07-27T03:32:59.355Z,17.30
2022-07-27T03:35:26.008Z,17.30
2022-07-27T03:37:52.688Z,17.40
2022-07-27T03:40:19.415Z,17.40
2022-07-27T03:42:46.188Z,17.30
2022-07-27T03:45:12.885Z,17.40
2022-07-27T03:47:39.550Z,17.30
2022-07-27T03:50:06.593Z,17.30
2022-07-27T03:52:33.278Z,17.30
2022-07-27T03:55:00.099Z,17.40
2022-07-27T03:57:26.801Z,17.30
2022-07-27T03:59:54.122Z,17.30
2022-07-27T04:02:20.879Z,17.20
2022-07-27T04:04:47.747Z,17.20
2022-07-27T04:07:14.409Z,17.20
2022-07-27T04:09:41.558Z,17.20
2022-07-27T04:12:10.598Z,17.20
2022-07-27T04:14:37.247Z,17.10
2022-07-27T04:17:04.589Z,17.10
2022-07-27T04:19:31.473Z,17.00
2022-07-27T04:21:58.217Z,16.90
2022-07-27T04:24:25.095Z,17.00
2022-07-27T04:26:51.840Z,17.00
2022-07-27T04:32:10.604Z,16.90
2022-07-27T04:34:37.442Z,16.90
2022-07-27T04:37:04.493Z,16.90
2022-07-27T04:39:31.338Z,16.90
2022-07-27T04:41:58.180Z,17.00
2022-07-27T04:44:24.918Z,17.00
2022-07-27T04:46:51.961Z,17.10
2022-07-27T04:49:18.882Z,16.90
2022-07-27T04:51:46.060Z,16.90
2022-07-27T04:54:13.007Z,17.00
2022-07-27T04:56:40.386Z,17.00
2022-07-27T04:59:07.611Z,17.00
2022-07-27T05:01:35.397Z,16.90
2022-07-27T05:04:04.345Z,16.90
2022-07-27T05:06:33.085Z,16.90
2022-07-27T05:09:00.303Z,16.90
2022-07-27T05:11:27.248Z,17.00
2022-07-27T05:13:54.093Z,17.00
2022-07-27T05:16:23.880Z,17.00
2022-07-27T05:21:46.056Z,17.20
2022-07-27T05:24:13.002Z,17.10
2022-07-27T05:26:40.151Z,17.10
2022-07-27T05:29:06.996Z,17.20
2022-07-27T05:31:34.218Z,17.00
2022-07-27T05:34:01.496Z,17.20
2022-07-27T05:36:28.747Z,17.10
2022-07-27T05:38:55.693Z,17.10
2022-07-27T05:41:26.836Z,17.30
2022-07-27T05:43:55.263Z,17.40
2022-07-27T05:46:23.482Z,17.40
2022-07-27T05:48:50.835Z,17.40
2022-07-27T05:51:17.992Z,17.60
2022-07-27T05:53:45.047Z,17.70
2022-07-27T05:56:12.397Z,17.70
2022-07-27T05:58:39.646Z,17.80
2022-07-27T06:01:06.543Z,17.80
2022-07-27T06:03:33.529Z,17.80
2022-07-27T06:09:10.669Z,17.80
2022-07-27T06:11:37.688Z,17.90
2022-07-27T06:14:04.628Z,17.80
2022-07-27T06:16:31.534Z,17.90
2022-07-27T06:18:58.624Z,17.90
2022-07-27T06:21:28.030Z,18.00
2022-07-27T06:23:55.595Z,18.00
2022-07-27T06:26:22.945Z,18.00
2022-07-27T06:28:49.989Z,17.90
2022-07-27T06:31:16.860Z,18.00
2022-07-27T06:33:46.157Z,17.90
2022-07-27T06:36:17.273Z,17.90
2022-07-27T06:38:44.332Z,17.80
2022-07-27T06:41:11.165Z,17.90
2022-07-27T06:43:38.322Z,17.90
2022-07-27T06:46:07.415Z,17.90
2022-07-27T06:48:34.615Z,17.90
2022-07-27T06:51:01.606Z,18.00
2022-07-27T06:53:29.076Z,18.00
2022-07-27T06:56:05.727Z,18.10
2022-07-27T06:58:34.032Z,18.00
2022-07-27T07:01:02.302Z,18.00
2022-07-27T07:03:29.781Z,18.00
2022-07-27T07:05:56.862Z,18.10
2022-07-27T07:08:23.694Z,18.00
2022-07-27T07:10:50.614Z,18.00
2022-07-27T07:13:17.446Z,18.00
2022-07-27T07:15:44.286Z,18.00
2022-07-27T07:18:12.150Z,18.00
2022-07-27T07:20:38.851Z,18.00
2022-07-27T07:23:06.068Z,18.10
2022-07-27T07:25:34.520Z,18.00
2022-07-27T07:28:01.949Z,18.10
2022-07-27T07:30:29.247Z,18.20
2022-07-27T07:32:56.286Z,18.20
2022-07-27T07:35:23.539Z,18.10
2022-07-27T07:37:50.918Z,18.10
2022-07-27T07:43:06.304Z,18.10
2022-07-27T07:45:35.536Z,18.20
2022-07-27T07:48:02.294Z,18.20
2022-07-27T07:50:29.063Z,18.30
2022-07-27T07:52:56.005Z,18.30
2022-07-27T07:55:25.482Z,18.40
2022-07-27T07:57:52.787Z,18.50
2022-07-27T08:00:20.214Z,18.60
2022-07-27T08:02:52.576Z,18.60
2022-07-27T08:05:20.108Z,18.60
2022-07-27T08:07:47.208Z,18.70
2022-07-27T08:10:15.691Z,18.70
2022-07-27T08:12:45.912Z,18.70
2022-07-27T08:15:14.290Z,18.80
2022-07-27T08:17:41.135Z,18.80
2022-07-27T08:20:08.262Z,18.90
2022-07-27T08:22:35.640Z,19.00
2022-07-27T08:25:03.547Z,19.10
2022-07-27T08:27:30.329Z,19.30
2022-07-27T08:30:09.075Z,19.50
2022-07-27T08:32:55.231Z,19.60
2022-07-27T08:35:22.412Z,19.60
2022-07-27T08:37:49.169Z,19.80
2022-07-27T08:43:05.504Z,19.90
2022-07-27T08:45:32.926Z,20.20
2022-07-27T08:47:59.697Z,20.40
2022-07-27T08:50:30.681Z,20.60
2022-07-27T08:53:05.572Z,20.60
2022-07-27T08:55:34.449Z,20.50
2022-07-27T08:58:03.371Z,20.40
2022-07-27T09:00:31.319Z,20.10
2022-07-27T09:02:58.155Z,20.10
2022-07-27T09:05:25.308Z,20.10
2022-07-27T09:07:55.216Z,20.30
2022-07-27T09:10:33.106Z,20.30
2022-07-27T09:13:00.577Z,20.60
2022-07-27T09:15:34.267Z,20.70
2022-07-27T09:18:15.914Z,21.10
2022-07-27T09:20:42.600Z,21.50
2022-07-27T09:23:09.236Z,21.80
2022-07-27T09:26:02.288Z,21.90
2022-07-27T09:28:30.997Z,22.20
2022-07-27T09:31:08.892Z,22.70
2022-07-27T09:33:47.194Z,22.90
2022-07-27T09:36:15.197Z,23.30
2022-07-27T09:38:55.271Z,23.20
2022-07-27T09:41:27.109Z,22.80
2022-07-27T09:46:48.527Z,22.30
2022-07-27T09:49:30.546Z,22.40
2022-07-27T09:52:00.613Z,22.60
2022-07-27T09:54:41.069Z,23.70
2022-07-27T09:57:12.986Z,24.70
2022-07-27T09:59:40.133Z,25.60
2022-07-27T10:02:07.554Z,25.80
2022-07-27T10:04:34.562Z,25.00
2022-07-27T10:07:04.562Z,25.10
2022-07-27T10:09:34.894Z,25.20
2022-07-27T10:12:04.846Z,25.60
2022-07-27T10:14:32.759Z,26.40
2022-07-27T10:16:59.646Z,26.90
2022-07-27T10:19:41.366Z,26.50
2022-07-27T10:22:08.108Z,26.30
2022-07-27T10:24:37.129Z,25.40
2022-07-27T10:27:18.097Z,24.90
2022-07-27T10:29:46.802Z,25.30
2022-07-27T10:32:33.222Z,25.30
2022-07-27T10:35:03.199Z,25.20
2022-07-27T10:37:34.849Z,24.50
2022-07-27T10:40:25.717Z,23.80
2022-07-27T10:43:16.691Z,23.60
2022-07-27T10:45:55.305Z,23.40
2022-07-27T10:48:37.490Z,23.30
2022-07-27T10:51:08.544Z,23.00
2022-07-27T10:54:09.451Z,23.00
2022-07-27T10:56:45.439Z,23.00
2022-07-27T10:59:12.150Z,23.10
2022-07-27T11:01:57.128Z,23.30
2022-07-27T11:04:24.860Z,24.10
2022-07-27T11:07:23.449Z,24.90
2022-07-27T11:12:30.994Z,24.70
2022-07-27T11:14:58.906Z,24.40
2022-07-27T11:20:15.290Z,24.40
2022-07-27T11:25:29.164Z,24.30
2022-07-27T11:27:55.891Z,24.10
2022-07-27T11:30:24.843Z,23.90
2022-07-27T11:32:51.819Z,23.70
2022-07-27T11:35:20.189Z,24.20
2022-07-27T11:38:13.499Z,25.10
2022-07-27T11:40:59.396Z,24.70
2022-07-27T11:43:43.295Z,24.20
2022-07-27T11:46:16.592Z,24.30
2022-07-27T11:49:05.542Z,24.20
2022-07-27T11:51:34.600Z,24.00
2022-07-27T11:54:07.441Z,24.00
2022-07-27T11:56:36.537Z,23.70
2022-07-27T11:59:04.922Z,23.40
2022-07-27T12:01:37.342Z,23.10
2022-07-27T12:04:14.399Z,23.20
2022-07-27T12:06:46.589Z,23.20
2022-07-27T12:09:16.892Z,23.20
2022-07-27T12:11:53.452Z,23.80
2022-07-27T12:14:34.533Z,24.20
2022-07-27T12:17:30.200Z,25.80
2022-07-27T12:20:04.239Z,26.60
2022-07-27T12:22:32.708Z,26.90
2022-07-27T12:25:05.713Z,26.60
2022-07-27T12:27:37.831Z,26.40
2022-07-27T12:30:12.545Z,25.90
2022-07-27T12:32:44.098Z,25.10
2022-07-27T12:35:26.287Z,24.30
2022-07-27T12:38:07.990Z,23.10
2022-07-27T12:40:43.182Z,23.10
2022-07-27T12:43:09.931Z,23.80
2022-07-27T12:45:38.389Z,24.00
2022-07-27T12:48:12.341Z,23.80
2022-07-27T12:50:40.983Z,23.40
2022-07-27T12:53:11.233Z,23.40
2022-07-27T12:55:38.376Z,23.60
2022-07-27T12:58:07.530Z,23.50
2022-07-27T13:00:34.498Z,23.00
2022-07-27T13:03:02.280Z,23.50
2022-07-27T13:05:29.365Z,24.00
2022-07-27T13:07:56.515Z,26.00
2022-07-27T13:10:23.346Z,27.30
2022-07-27T13:12:51.006Z,27.80
2022-07-27T13:15:18.467Z,26.50
2022-07-27T13:17:46.153Z,26.40
2022-07-27T13:20:14.221Z,25.90
2022-07-27T13:22:41.971Z,25.20
2022-07-27T13:25:15.287Z,25.00
2022-07-27T13:27:44.549Z,24.60
2022-07-27T13:30:13.331Z,24.30
2022-07-27T13:32:40.591Z,24.00
2022-07-27T13:35:09.130Z,23.90
2022-07-27T13:37:35.915Z,23.90
2022-07-27T13:40:02.710Z,23.80
2022-07-27T13:42:29.411Z,23.20
2022-07-27T13:45:08.752Z,22.90
2022-07-27T13:47:37.523Z,22.40
2022-07-27T13:50:05.503Z,22.40
2022-07-27T13:52:32.134Z,22.80
2022-07-27T13:54:58.896Z,22.80
2022-07-27T13:57:25.609Z,22.70
2022-07-27T13:59:52.564Z,22.80
2022-07-27T14:02:23.006Z,22.90
2022-07-27T14:04:50.969Z,22.80
2022-07-27T14:07:17.929Z,22.80
2022-07-27T14:10:03.605Z,22.70
2022-07-27T14:12:30.445Z,22.50
2022-07-27T14:14:57.077Z,22.70
2022-07-27T14:17:23.711Z,22.60
2022-07-27T14:19:50.331Z,22.70
2022-07-27T14:22:16.964Z,22.30
2022-07-27T14:24:43.726Z,22.30
2022-07-27T14:27:10.381Z,22.50
2022-07-27T14:29:37.084Z,22.40
2022-07-27T14:32:04.103Z,22.30
2022-07-27T14:34:31.105Z,22.40
2022-07-27T14:36:57.815Z,22.40
2022-07-27T14:39:24.437Z,22.40
2022-07-27T14:41:51.226Z,22.60
2022-07-27T14:44:18.958Z,22.60
2022-07-27T14:46:46.230Z,22.70
2022-07-27T14:49:14.583Z,22.90
2022-07-27T14:51:41.397Z,23.00
2022-07-27T14:54:08.200Z,22.80
2022-07-27T14:56:36.411Z,22.50
2022-07-27T14:59:03.759Z,22.20
2022-07-27T15:01:30.631Z,22.30
2022-07-27T15:03:57.521Z,22.70
2022-07-27T15:06:24.218Z,22.70
2022-07-27T15:08:50.916Z,22.80
2022-07-27T15:11:17.626Z,22.80
2022-07-27T15:13:44.271Z,22.80
2022-07-27T15:16:11.922Z,22.50
2022-07-27T15:18:39.185Z,22.30
2022-07-27T15:21:13.326Z,22.10
2022-07-27T15:23:42.026Z,22.20
2022-07-27T15:26:08.740Z,22.30
2022-07-27T15:28:36.432Z,22.30
2022-07-27T15:31:03.362Z,22.30
2022-07-27T15:33:30.334Z,22.50
2022-07-27T15:35:57.168Z,22.50
2022-07-27T15:38:24.077Z,22.40
2022-07-27T15:40:50.821Z,22.20
2022-07-27T15:43:18.769Z,22.40
2022-07-27T15:45:48.428Z,22.50
2022-07-27T15:48:16.965Z,22.30
2022-07-27T15:50:48.413Z,22.10
2022-07-27T15:53:15.509Z,22.30
2022-07-27T15:55:43.873Z,22.40
2022-07-27T15:58:11.191Z,22.40
2022-07-27T16:00:41.053Z,22.50
2022-07-27T16:03:14.759Z,22.50
2022-07-27T16:05:43.586Z,22.50
2022-07-27T16:08:10.943Z,22.40
2022-07-27T16:10:38.915Z,22.30
2022-07-27T16:13:07.302Z,22.40
2022-07-27T16:15:53.946Z,22.40
2022-07-27T16:18:21.669Z,22.40
2022-07-27T16:20:48.811Z,22.30
2022-07-27T16:23:18.991Z,22.30
2022-07-27T16:26:10.561Z,22.30
2022-07-27T16:28:44.975Z,22.20
2022-07-27T16:31:14.162Z,22.30
2022-07-27T16:33:44.282Z,22.20
2022-07-27T16:36:12.583Z,22.20
2022-07-27T16:38:49.645Z,22.20
2022-07-27T16:41:19.170Z,22.20
2022-07-27T16:46:37.031Z,22.10
2022-07-27T16:49:04.390Z,22.10
2022-07-27T16:51:31.299Z,22.10
2022-07-27T16:53:58.143Z,22.10
2022-07-27T16:56:25.392Z,22.00
2022-07-27T16:58:52.334Z,21.90
2022-07-27T17:01:26.291Z,21.90
2022-07-27T17:03:55.331Z,21.80
2022-07-27T17:06:23.206Z,21.80
2022-07-27T17:08:50.044Z,21.80
2022-07-27T17:11:21.753Z,21.80
2022-07-27T17:13:49.812Z,21.70
2022-07-27T17:16:17.279Z,21.70
2022-07-27T17:18:44.390Z,21.70
2022-07-27T17:21:13.126Z,21.70
2022-07-27T17:23:42.138Z,21.60
2022-07-27T17:26:10.644Z,21.50
2022-07-27T17:28:42.194Z,21.40
2022-07-27T17:31:11.321Z,21.40
2022-07-27T17:33:39.674Z,21.30
2022-07-27T17:36:12.336Z,21.30
2022-07-27T17:38:41.137Z,21.30
2022-07-27T17:41:08.393Z,21.30
2022-07-27T17:43:38.633Z,21.30
2022-07-27T17:46:07.497Z,21.30
2022-07-27T17:49:00.724Z,21.20
2022-07-27T17:51:28.010Z,21.20
2022-07-27T17:53:55.071Z,21.20
2022-07-27T17:56:22.005Z,21.20
2022-07-27T17:58:49.468Z,21.20
2022-07-27T18:01:16.511Z,21.10
2022-07-27T18:03:43.691Z,21.10
2022-07-27T18:06:10.509Z,21.00
2022-07-27T18:08:37.651Z,20.90
2022-07-27T18:11:04.699Z,20.80
2022-07-27T18:13:38.858Z,20.80
2022-07-27T18:16:09.480Z,20.70
2022-07-27T18:18:37.327Z,20.60
2022-07-27T18:21:04.869Z,20.60
2022-07-27T18:23:31.826Z,20.50
2022-07-27T18:25:58.860Z,20.50
2022-07-27T18:28:25.713Z,20.40
2022-07-27T18:33:47.449Z,20.30
2022-07-27T18:36:15.419Z,20.20
2022-07-27T18:38:42.463Z,20.10
2022-07-27T18:41:10.741Z,20.10
2022-07-27T18:43:37.579Z,20.00
2022-07-27T18:46:05.543Z,19.90
2022-07-27T18:48:32.646Z,19.90
2022-07-27T18:50:59.545Z,19.80
2022-07-27T18:53:26.589Z,19.70
2022-07-27T18:55:56.471Z,19.60
2022-07-27T18:58:24.271Z,19.60
2022-07-27T19:00:52.233Z,19.50
2022-07-27T19:03:22.146Z,19.40
2022-07-27T19:05:52.920Z,19.40
2022-07-27T19:08:20.549Z,19.30
2022-07-27T19:10:47.696Z,19.30
2022-07-27T19:13:14.645Z,19.20
2022-07-27T19:15:41.998Z,19.20
2022-07-27T19:18:09.051Z,19.10
2022-07-27T19:20:39.160Z,19.10
2022-07-27T19:23:06.939Z,19.00
2022-07-27T19:25:34.199Z,18.90
2022-07-27T19:28:03.728Z,18.90
2022-07-27T19:30:30.911Z,18.80
2022-07-27T19:32:58.194Z,18.80
2022-07-27T19:35:25.331Z,18.70
2022-07-27T19:37:52.292Z,18.60
2022-07-27T19:40:43.480Z,18.60
2022-07-27T19:43:07.488Z,18.60
2022-07-27T19:45:35.333Z,18.50
2022-07-27T19:48:05.839Z,18.50
2022-07-27T19:50:32.914Z,18.40
2022-07-27T19:53:00.575Z,18.40
2022-07-27T19:58:18.735Z,18.30
2022-07-27T20:00:46.599Z,18.30
2022-07-27T20:03:13.440Z,18.20
2022-07-27T20:05:41.853Z,18.20
2022-07-27T20:08:08.659Z,18.20
2022-07-27T20:10:35.725Z,18.10
2022-07-27T20:13:02.884Z,18.10
2022-07-27T20:15:31.860Z,18.10
2022-07-27T20:17:59.238Z,18.10
2022-07-27T20:20:26.973Z,18.10
2022-07-27T20:22:54.639Z,18.10
2022-07-27T20:25:22.918Z,18.10
2022-07-27T20:27:50.482Z,18.10
2022-07-27T20:30:18.765Z,18.10
2022-07-27T20:32:47.838Z,18.10
2022-07-27T20:35:15.200Z,18.10
2022-07-27T20:37:42.967Z,18.10
2022-07-27T20:43:04.195Z,18.00
2022-07-27T20:45:31.260Z,18.00
2022-07-27T20:47:58.296Z,18.00
2022-07-27T20:50:25.344Z,18.00
2022-07-27T20:52:52.481Z,18.00
2022-07-27T20:55:19.431Z,17.90
2022-07-27T20:57:46.877Z,17.90
2022-07-27T21:00:14.317Z,17.90
2022-07-27T21:02:41.535Z,17.90
2022-07-27T21:05:09.151Z,17.80
2022-07-27T21:07:36.371Z,17.80
2022-07-27T21:10:04.278Z,17.80
2022-07-27T21:12:31.234Z,17.80
2022-07-27T21:14:58.259Z,17.80
2022-07-27T21:20:16.523Z,17.70
2022-07-27T21:22:43.779Z,17.70
2022-07-27T21:25:13.206Z,17.70
2022-07-27T21:27:43.604Z,17.60
2022-07-27T21:30:12.707Z,17.60
2022-07-27T21:32:39.846Z,17.60
2022-07-27T21:35:07.449Z,17.50
2022-07-27T21:37:35.282Z,17.60
2022-07-27T21:40:02.313Z,17.50
2022-07-27T21:42:30.486Z,17.50
2022-07-27T21:44:57.401Z,17.50
2022-07-27T21:47:24.389Z,17.50
2022-07-27T21:49:51.444Z,17.40
2022-07-27T21:52:18.683Z,17.40
2022-07-27T21:54:45.620Z,17.40
2022-07-27T21:57:12.568Z,17.30
2022-07-27T21:59:39.419Z,17.30
2022-07-27T22:02:06.463Z,17.30
2022-07-27T22:04:33.566Z,17.30
2022-07-27T22:07:00.555Z,17.20
2022-07-27T22:09:30.770Z,17.20
2022-07-27T22:11:57.718Z,17.20
2022-07-27T22:14:25.324Z,17.20
2022-07-27T22:16:53.016Z,17.20
2022-07-27T22:19:19.947Z,17.20
2022-07-27T22:21:46.713Z,17.20
2022-07-27T22:24:13.745Z,17.10
2022-07-27T22:26:40.655Z,17.00
2022-07-27T22:29:07.385Z,17.00
2022-07-27T22:31:34.055Z,17.00
2022-07-27T22:34:00.731Z,17.00
2022-07-27T22:36:27.405Z,17.00
2022-07-27T22:38:54.168Z,16.90
2022-07-27T22:41:20.780Z,16.90
2022-07-27T22:43:47.431Z,16.90
2022-07-27T22:46:14.043Z,16.90
2022-07-27T22:48:40.889Z,16.90
2022-07-27T22:51:07.752Z,16.90
2022-07-27T22:53:34.877Z,16.90
2022-07-27T22:56:01.543Z,16.90
2022-07-27T22:58:28.149Z,16.80
2022-07-27T23:00:59.401Z,16.80
2022-07-27T23:03:26.335Z,16.80
2022-07-27T23:05:53.005Z,16.80
2022-07-27T23:08:19.617Z,16.70
2022-07-27T23:10:46.295Z,16.70
2022-07-27T23:13:14.653Z,16.70
2022-07-27T23:15:41.646Z,16.70
2022-07-27T23:18:09.064Z,16.70
2022-07-27T23:20:36.421Z,16.70
2022-07-27T23:23:04.146Z,16.60
2022-07-27T23:25:42.291Z,16.60
2022-07-27T23:28:08.930Z,16.60
2022-07-27T23:30:35.580Z,16.60
2022-07-27T23:33:02.451Z,16.60
2022-07-27T23:35:29.240Z,16.50
2022-07-27T23:37:55.944Z,16.50
2022-07-27T23:40:23.479Z,16.50
2022-07-27T23:42:50.409Z,16.50
2022-07-27T23:45:17.637Z,16.50
2022-07-27T23:47:44.393Z,16.50
2022-07-27T23:50:11.621Z,16.50
2022-07-27T23:52:38.269Z,16.50
2022-07-27T23:55:06.763Z,16.50
2022-07-27T23:57:33.495Z,16.50
